Time;durP1;ratioP1;P1;durP2;ratioP2;P2;SDS_P1;SDS_P2;PMS_P1;PMS_P2;Temp;Humidity;BMP_temperature;BMP_pressure;BME280_temperature;BME280_humidity;BME280_pressure;Samples;Min_cycle;Max_cycle;Signal;HPM_P1;HPM_P2
2023/10/22 00:01:13;;;;;;;2.40;0.68;;;16.60;99.90;;;;;;4994492;28;20425;-69
2023/10/22 00:03:39;;;;;;;4.40;0.73;;;16.60;99.90;;;;;;4994447;28;20424;-69
2023/10/22 00:06:05;;;;;;;3.67;0.40;;;16.60;99.90;;;;;;4994667;28;20064;-69
2023/10/22 00:08:31;;;;;;;3.30;1.05;;;16.60;99.90;;;;;;4994632;28;20054;-69
2023/10/22 00:10:57;;;;;;;3.60;0.60;;;16.60;99.90;;;;;;4993076;28;20029;-69
2023/10/22 00:13:22;;;;;;;3.67;0.93;;;16.50;99.90;;;;;;4994479;28;20442;-69
2023/10/22 00:15:48;;;;;;;3.45;0.60;;;16.50;99.90;;;;;;4994559;28;20463;-69
2023/10/22 00:18:14;;;;;;;3.90;1.33;;;16.60;99.90;;;;;;4994284;28;20037;-68
2023/10/22 00:20:41;;;;;;;3.42;0.73;;;16.50;99.90;;;;;;4994452;28;20052;-68
2023/10/22 00:23:07;;;;;;;4.90;0.73;;;16.50;99.90;;;;;;4994216;28;20107;-68
2023/10/22 00:25:36;;;;;;;3.17;0.90;;;16.50;99.90;;;;;;4994236;28;20467;-68
2023/10/22 00:28:02;;;;;;;4.10;0.93;;;16.50;99.90;;;;;;4994271;28;20030;-68
2023/10/22 00:30:28;;;;;;;3.13;0.88;;;16.50;99.90;;;;;;4994210;28;20030;-68
2023/10/22 00:32:53;;;;;;;2.80;0.55;;;16.50;99.90;;;;;;5008910;28;20073;-68
2023/10/22 00:35:19;;;;;;;3.10;0.60;;;16.50;99.90;;;;;;4993939;28;20041;-68
2023/10/22 00:37:44;;;;;;;4.03;0.68;;;16.40;99.90;;;;;;4994204;28;20015;-68
2023/10/22 00:40:10;;;;;;;2.83;0.73;;;16.40;99.90;;;;;;4993867;28;20106;-68
2023/10/22 00:42:36;;;;;;;3.05;0.80;;;16.40;99.90;;;;;;4994082;28;20030;-69
2023/10/22 00:45:02;;;;;;;3.25;0.60;;;16.40;99.90;;;;;;4994064;28;20033;-68
2023/10/22 00:47:29;;;;;;;3.92;0.75;;;16.40;99.90;;;;;;4993997;28;20038;-69
2023/10/22 00:49:54;;;;;;;2.90;0.63;;;16.40;99.90;;;;;;4993950;28;20050;-68
2023/10/22 00:52:20;;;;;;;2.97;0.70;;;16.30;99.90;;;;;;4993994;28;20471;-68
2023/10/22 00:54:46;;;;;;;5.63;0.93;;;16.30;99.90;;;;;;4993440;28;20038;-68
2023/10/22 00:57:12;;;;;;;2.13;0.70;;;16.30;99.90;;;;;;4994018;28;20093;-68
2023/10/22 00:59:38;;;;;;;3.53;0.70;;;16.40;99.90;;;;;;4993800;28;20065;-68
2023/10/22 01:02:04;;;;;;;3.08;0.68;;;16.30;99.90;;;;;;4993806;28;20459;-68
2023/10/22 01:04:31;;;;;;;3.35;0.80;;;16.30;99.90;;;;;;4993673;28;20042;-68
2023/10/22 01:06:57;;;;;;;4.05;0.68;;;16.30;99.90;;;;;;4993956;28;20021;-69
2023/10/22 01:09:22;;;;;;;4.30;1.00;;;16.30;99.90;;;;;;4993519;28;20034;-68
2023/10/22 01:11:58;;;;;;;2.80;0.60;;;16.30;99.90;;;;;;4993824;28;20332;-68
2023/10/22 01:14:24;;;;;;;4.47;0.80;;;16.30;99.90;;;;;;4993384;28;20041;-69
2023/10/22 01:16:49;;;;;;;3.00;0.82;;;16.30;99.90;;;;;;4993774;28;20388;-68
2023/10/22 01:19:15;;;;;;;4.63;0.80;;;16.30;99.90;;;;;;4993644;28;20456;-68
2023/10/22 01:21:40;;;;;;;5.70;1.25;;;16.20;99.90;;;;;;4993673;28;20027;-68
2023/10/22 01:24:06;;;;;;;5.05;1.20;;;16.20;99.90;;;;;;4993296;28;20025;-68
2023/10/22 01:26:32;;;;;;;9.13;1.05;;;16.20;99.90;;;;;;4993625;28;20031;-68
2023/10/22 01:28:58;;;;;;;2.35;0.73;;;16.20;99.90;;;;;;4993583;28;20045;-68
2023/10/22 01:31:23;;;;;;;5.70;1.10;;;16.20;99.90;;;;;;4993440;28;20038;-69
2023/10/22 01:33:49;;;;;;;3.75;0.95;;;16.20;99.90;;;;;;4993380;28;20049;-68
2023/10/22 01:36:14;;;;;;;5.32;1.23;;;16.20;99.90;;;;;;4993447;28;20045;-69
2023/10/22 01:38:40;;;;;;;5.80;1.13;;;16.20;99.90;;;;;;4993315;28;20128;-69
2023/10/22 01:41:08;;;;;;;6.22;1.02;;;16.20;99.90;;;;;;4993482;28;20018;-68
2023/10/22 01:43:34;;;;;;;5.82;1.00;;;16.20;99.90;;;;;;4993483;28;20411;-69
2023/10/22 01:46:00;;;;;;;4.43;1.92;;;16.10;99.90;;;;;;4994856;28;20375;-69
2023/10/22 01:48:26;;;;;;;4.07;1.90;;;16.10;99.90;;;;;;4997254;28;20475;-69
2023/10/22 01:50:52;;;;;;;5.88;2.10;;;16.10;99.90;;;;;;4997031;28;20023;-70
2023/10/22 01:53:17;;;;;;;3.45;1.92;;;16.10;99.90;;;;;;4996836;28;20041;-69
2023/10/22 01:55:43;;;;;;;4.68;2.72;;;16.10;99.90;;;;;;4997141;28;20022;-69
2023/10/22 01:58:09;;;;;;;6.22;3.08;;;16.10;99.90;;;;;;4996937;28;20081;-69
2023/10/22 02:00:34;;;;;;;7.30;3.15;;;16.00;99.90;;;;;;4996879;28;20019;-70
2023/10/22 02:03:00;;;;;;;5.93;3.38;;;16.00;99.90;;;;;;4997048;28;20092;-69
2023/10/22 02:05:25;;;;;;;5.50;3.45;;;16.10;99.90;;;;;;4996894;28;20163;-69
2023/10/22 02:07:51;;;;;;;4.57;3.53;;;16.00;99.90;;;;;;4996615;28;20484;-67
2023/10/22 02:10:17;;;;;;;6.78;3.40;;;16.00;99.90;;;;;;4996708;28;20026;-68
2023/10/22 02:12:43;;;;;;;4.20;3.15;;;16.00;99.90;;;;;;4996668;28;20416;-68
2023/10/22 02:15:09;;;;;;;4.40;3.40;;;16.00;99.90;;;;;;4996789;28;20558;-68
2023/10/22 02:17:34;;;;;;;5.97;3.53;;;16.00;99.90;;;;;;4996796;28;20109;-69
2023/10/22 02:20:00;;;;;;;4.10;3.30;;;16.00;99.90;;;;;;4996503;28;20130;-69
2023/10/22 02:22:26;;;;;;;6.13;3.25;;;16.00;99.90;;;;;;4996404;28;20368;-69
2023/10/22 02:24:52;;;;;;;7.88;3.22;;;16.00;99.90;;;;;;4996530;28;20460;-69
2023/10/22 02:27:18;;;;;;;6.60;3.58;;;16.00;99.90;;;;;;4995190;28;20037;-69
2023/10/22 02:29:44;;;;;;;5.28;3.35;;;15.90;99.90;;;;;;4996503;28;20023;-68
2023/10/22 02:32:09;;;;;;;7.15;3.75;;;16.00;99.90;;;;;;4996206;28;20507;-68
2023/10/22 02:34:35;;;;;;;6.85;3.33;;;15.90;99.90;;;;;;4996236;28;20121;-68
2023/10/22 02:37:01;;;;;;;5.18;3.08;;;15.90;99.90;;;;;;4996050;28;20022;-70
2023/10/22 02:39:27;;;;;;;4.25;2.63;;;15.90;99.90;;;;;;4996352;28;20547;-68
2023/10/22 02:41:52;;;;;;;4.05;2.88;;;15.80;99.90;;;;;;4996123;28;20034;-69
2023/10/22 02:44:18;;;;;;;5.13;3.13;;;15.90;99.90;;;;;;4994990;28;20030;-69
2023/10/22 02:46:43;;;;;;;4.05;2.47;;;15.80;99.90;;;;;;4994880;28;20026;-69
2023/10/22 02:49:09;;;;;;;6.07;2.72;;;15.80;99.90;;;;;;4996225;28;20026;-69
2023/10/22 02:51:34;;;;;;;4.78;3.00;;;15.80;99.90;;;;;;4995698;28;20050;-69
2023/10/22 02:54:00;;;;;;;4.95;2.45;;;15.80;99.90;;;;;;4995886;28;20038;-69
2023/10/22 02:56:26;;;;;;;6.25;2.55;;;15.80;99.90;;;;;;4995774;28;20519;-69
2023/10/22 02:58:51;;;;;;;3.28;2.13;;;15.80;99.90;;;;;;4995985;28;20026;-68
2023/10/22 03:01:17;;;;;;;5.00;2.38;;;15.80;99.90;;;;;;4995902;28;20089;-68
2023/10/22 03:03:43;;;;;;;5.80;2.33;;;15.70;99.90;;;;;;4995697;28;20120;-69
2023/10/22 03:06:12;;;;;;;3.35;1.90;;;15.70;99.90;;;;;;4994216;28;20439;-69
2023/10/22 03:08:41;;;;;;;4.22;2.17;;;15.70;99.90;;;;;;4995773;28;20037;-69
2023/10/22 03:11:17;;;;;;;7.38;1.85;;;15.70;99.90;;;;;;4995547;28;20290;-69
2023/10/22 03:13:43;;;;;;;3.30;2.00;;;15.70;99.90;;;;;;4995659;28;20475;-69
2023/10/22 03:16:17;;;;;;;5.55;1.98;;;15.70;99.90;;;;;;4995721;28;20072;-69
2023/10/22 03:18:45;;;;;;;4.85;2.47;;;15.70;99.90;;;;;;4995474;28;20101;-69
2023/10/22 03:21:16;;;;;;;8.52;2.20;;;15.70;99.90;;;;;;4995368;28;20049;-68
2023/10/22 03:23:42;;;;;;;5.85;2.13;;;15.60;99.90;;;;;;4995392;28;20031;-69
2023/10/22 03:26:11;;;;;;;5.28;1.80;;;15.70;99.90;;;;;;4995430;28;20053;-69
2023/10/22 03:28:37;;;;;;;6.25;1.83;;;15.60;99.90;;;;;;4995316;28;20022;-69
2023/10/22 03:31:04;;;;;;;5.15;1.65;;;15.60;99.90;;;;;;4995614;28;20033;-69
2023/10/22 03:33:33;;;;;;;3.65;1.50;;;15.60;99.90;;;;;;4994935;28;20042;-69
2023/10/22 03:36:00;;;;;;;7.60;1.80;;;15.50;99.90;;;;;;4995226;28;20030;-69
2023/10/22 03:38:26;;;;;;;6.38;1.50;;;15.50;99.90;;;;;;4995063;28;20026;-69
2023/10/22 03:40:59;;;;;;;5.03;2.03;;;15.50;99.90;;;;;;4995347;28;20023;-68
2023/10/22 03:43:26;;;;;;;3.90;1.40;;;15.50;99.90;;;;;;4995134;28;20022;-69
2023/10/22 03:45:52;;;;;;;7.88;1.55;;;15.50;99.90;;;;;;4995198;28;20011;-69
2023/10/22 03:48:17;;;;;;;3.38;1.33;;;15.40;99.90;;;;;;4994761;28;20041;-69
2023/10/22 03:50:44;;;;;;;5.13;1.35;;;15.50;99.90;;;;;;4995071;28;20467;-69
2023/10/22 03:53:09;;;;;;;2.72;1.50;;;15.50;99.90;;;;;;4994591;28;20038;-69
2023/10/22 03:55:35;;;;;;;4.57;1.10;;;15.40;99.90;;;;;;4994986;28;20085;-69
2023/10/22 03:58:00;;;;;;;5.72;1.30;;;15.50;99.90;;;;;;4994832;28;20101;-70
2023/10/22 04:00:26;;;;;;;5.90;1.17;;;15.40;99.90;;;;;;4993602;28;20530;-69
2023/10/22 04:02:52;;;;;;;5.03;1.20;;;15.40;99.90;;;;;;4994080;28;20049;-69
2023/10/22 04:05:17;;;;;;;4.13;1.45;;;15.40;99.90;;;;;;4994587;28;20030;-70
2023/10/22 04:07:43;;;;;;;1.80;1.00;;;15.40;99.90;;;;;;4993454;28;20471;-69
2023/10/22 04:10:11;;;;;;;4.53;1.10;;;15.40;99.90;;;;;;4993155;28;20037;-69
2023/10/22 04:12:37;;;;;;;4.63;1.38;;;15.40;99.90;;;;;;4994572;28;20056;-69
2023/10/22 04:15:04;;;;;;;5.03;1.50;;;15.40;99.90;;;;;;4994589;28;20587;-69
2023/10/22 04:17:29;;;;;;;6.18;1.83;;;15.30;99.90;;;;;;4994226;28;20029;-69
2023/10/22 04:19:55;;;;;;;6.75;1.60;;;15.30;99.90;;;;;;4994371;28;20387;-69
2023/10/22 04:22:21;;;;;;;5.75;1.45;;;15.30;99.90;;;;;;4994402;28;20022;-69
2023/10/22 04:24:47;;;;;;;6.15;1.35;;;15.30;99.90;;;;;;4994456;28;20033;-69
2023/10/22 04:27:13;;;;;;;5.43;1.10;;;15.30;99.90;;;;;;4994396;28;20019;-70
2023/10/22 04:29:38;;;;;;;3.72;0.90;;;15.30;99.90;;;;;;4994329;28;20034;-69
2023/10/22 04:32:05;;;;;;;5.28;1.20;;;15.30;99.90;;;;;;4994176;28;20369;-69
2023/10/22 04:34:32;;;;;;;4.65;1.10;;;15.30;99.90;;;;;;4994034;28;20034;-69
2023/10/22 04:36:58;;;;;;;6.30;1.63;;;15.30;99.90;;;;;;4994056;28;20027;-69
2023/10/22 04:39:24;;;;;;;4.22;1.70;;;15.20;99.90;;;;;;4994216;28;20148;-69
2023/10/22 04:41:50;;;;;;;4.40;1.30;;;15.30;99.90;;;;;;4994173;28;20073;-70
2023/10/22 04:44:16;;;;;;;4.05;1.10;;;15.20;99.90;;;;;;4993853;28;20124;-69
2023/10/22 04:46:42;;;;;;;5.45;1.42;;;15.20;99.90;;;;;;4993913;28;20479;-69
2023/10/22 04:49:07;;;;;;;5.65;1.17;;;15.30;99.90;;;;;;4993865;28;20037;-69
2023/10/22 04:51:33;;;;;;;4.20;1.27;;;15.30;99.90;;;;;;4993881;28;20026;-69
2023/10/22 04:53:58;;;;;;;3.65;1.30;;;15.30;99.90;;;;;;4993805;28;20038;-70
2023/10/22 04:56:24;;;;;;;3.42;1.10;;;15.20;99.90;;;;;;4994122;28;20468;-69
2023/10/22 04:58:49;;;;;;;3.03;0.90;;;15.20;99.90;;;;;;4992646;28;20030;-68
2023/10/22 05:01:15;;;;;;;6.70;1.30;;;15.20;99.90;;;;;;4992246;28;20552;-69
2023/10/22 05:03:41;;;;;;;4.65;1.02;;;15.20;99.90;;;;;;4993642;28;20089;-69
2023/10/22 05:06:06;;;;;;;8.55;1.00;;;15.20;99.90;;;;;;4993337;28;20018;-69
2023/10/22 05:08:36;;;;;;;4.03;1.20;;;15.20;99.90;;;;;;4993615;28;20435;-69
2023/10/22 05:11:05;;;;;;;3.28;1.20;;;15.20;99.90;;;;;;4993910;28;20435;-69
2023/10/22 05:13:32;;;;;;;2.95;1.08;;;15.20;99.90;;;;;;4993692;28;20383;-69
2023/10/22 05:15:57;;;;;;;5.00;1.17;;;15.20;99.90;;;;;;4993439;28;20220;-69
2023/10/22 05:18:25;;;;;;;3.05;1.10;;;15.20;99.90;;;;;;4993771;28;20026;-69
2023/10/22 05:20:52;;;;;;;5.55;1.40;;;15.20;99.90;;;;;;4994839;28;20015;-69
2023/10/22 05:23:17;;;;;;;2.67;0.90;;;15.10;99.90;;;;;;4997918;28;20049;-69
2023/10/22 05:25:43;;;;;;;7.38;1.00;;;15.10;99.90;;;;;;4997540;28;20506;-69
2023/10/22 05:28:08;;;;;;;4.97;1.30;;;15.20;99.90;;;;;;4997698;28;20022;-69
2023/10/22 05:30:34;;;;;;;5.32;1.17;;;15.20;99.90;;;;;;4997337;28;20470;-69
2023/10/22 05:33:01;;;;;;;4.40;1.08;;;15.10;99.90;;;;;;4997572;28;20037;-69
2023/10/22 05:35:27;;;;;;;4.32;0.90;;;15.10;99.90;;;;;;4997390;28;20031;-69
2023/10/22 05:37:53;;;;;;;2.35;1.20;;;15.10;99.90;;;;;;4997513;28;20101;-69
2023/10/22 05:40:18;;;;;;;4.05;1.27;;;15.20;99.90;;;;;;4997269;28;20153;-69
2023/10/22 05:42:44;;;;;;;4.57;1.17;;;15.10;99.90;;;;;;4997425;28;20026;-68
2023/10/22 05:45:10;;;;;;;3.88;1.20;;;15.10;99.90;;;;;;4996962;28;20026;-69
2023/10/22 05:47:35;;;;;;;5.53;1.40;;;15.10;99.90;;;;;;4996011;28;20497;-68
2023/10/22 05:50:02;;;;;;;4.70;1.50;;;15.10;99.90;;;;;;4997313;28;20097;-68
2023/10/22 05:52:28;;;;;;;7.28;1.85;;;15.10;99.90;;;;;;4997286;28;20022;-68
2023/10/22 05:54:54;;;;;;;5.57;1.90;;;15.00;99.90;;;;;;4997174;28;20081;-68
2023/10/22 05:57:22;;;;;;;6.35;1.27;;;15.10;99.90;;;;;;4997081;28;20441;-69
2023/10/22 05:59:49;;;;;;;6.10;1.55;;;15.10;99.90;;;;;;4996688;28;20080;-68
2023/10/22 06:02:14;;;;;;;4.22;1.50;;;15.10;99.90;;;;;;4997014;28;20081;-68
2023/10/22 06:04:40;;;;;;;4.70;1.02;;;14.90;99.90;;;;;;4996920;28;20498;-68
2023/10/22 06:07:07;;;;;;;6.30;1.63;;;15.00;99.90;;;;;;4996994;28;20026;-69
2023/10/22 06:09:34;;;;;;;3.70;1.08;;;14.90;99.90;;;;;;4996965;28;20022;-69
2023/10/22 06:12:00;;;;;;;5.05;1.23;;;15.00;99.90;;;;;;4996695;28;20077;-69
2023/10/22 06:14:26;;;;;;;11.07;1.25;;;15.00;99.90;;;;;;4996375;28;20423;-75
2023/10/22 06:16:51;;;;;;;8.55;1.63;;;15.00;99.90;;;;;;4994785;28;20076;-69
2023/10/22 06:19:17;;;;;;;7.70;1.13;;;15.00;99.90;;;;;;4992851;28;20026;-69
2023/10/22 06:21:43;;;;;;;4.72;1.00;;;15.00;99.90;;;;;;4987448;28;20065;-69
2023/10/22 06:24:09;;;;;;;3.67;0.70;;;15.10;99.90;;;;;;4991162;28;20026;-69
2023/10/22 06:26:35;;;;;;;6.80;1.17;;;15.10;99.90;;;;;;4987805;28;20053;-69
2023/10/22 06:29:00;;;;;;;3.90;0.93;;;15.10;99.90;;;;;;4988742;28;20065;-69
2023/10/22 06:31:26;;;;;;;6.55;1.02;;;15.20;99.90;;;;;;4984192;28;20074;-69
2023/10/22 06:33:51;;;;;;;2.95;0.90;;;15.20;99.90;;;;;;4993809;28;20042;-70
2023/10/22 06:36:21;;;;;;;4.68;1.15;;;15.20;99.90;;;;;;4993668;28;20080;-69
2023/10/22 06:38:48;;;;;;;6.70;0.90;;;15.10;99.90;;;;;;4993597;28;20018;-74
2023/10/22 06:41:22;;;;;;;1.77;0.88;;;15.10;99.90;;;;;;4994489;28;20037;-68
2023/10/22 06:43:48;;;;;;;4.05;0.93;;;15.10;99.90;;;;;;4990189;28;20108;-69
2023/10/22 06:46:17;;;;;;;5.35;1.25;;;15.10;99.90;;;;;;4991047;28;20353;-70
2023/10/22 06:48:43;;;;;;;5.10;1.20;;;15.10;99.90;;;;;;4995759;28;20053;-70
2023/10/22 06:51:10;;;;;;;4.68;1.73;;;15.10;99.90;;;;;;4995657;28;20494;-70
2023/10/22 06:53:37;;;;;;;2.75;1.30;;;15.10;99.90;;;;;;4994728;28;20039;-70
2023/10/22 06:56:04;;;;;;;3.63;1.48;;;15.00;99.90;;;;;;4994746;28;20019;-70
2023/10/22 06:58:30;;;;;;;2.60;1.02;;;15.00;99.90;;;;;;4994666;28;20026;-70
2023/10/22 07:01:09;;;;;;;3.80;1.30;;;15.00;99.90;;;;;;4994292;28;20019;-70
2023/10/22 07:03:36;;;;;;;3.63;1.08;;;15.10;99.90;;;;;;4989795;28;20089;-68
2023/10/22 07:06:02;;;;;;;6.50;1.40;;;15.00;99.90;;;;;;4976240;28;20063;-68
2023/10/22 07:08:28;;;;;;;5.28;1.42;;;15.00;99.90;;;;;;4975428;28;20054;-69
2023/10/22 07:10:54;;;;;;;6.20;1.70;;;15.00;99.90;;;;;;4988110;28;20113;-69
2023/10/22 07:13:20;;;;;;;5.15;1.60;;;15.10;99.90;;;;;;4974076;28;20468;-70
2023/10/22 07:15:47;;;;;;;3.22;1.63;;;15.00;99.90;;;;;;4984218;28;20023;-68
2023/10/22 07:18:13;;;;;;;4.65;1.15;;;15.10;99.90;;;;;;4988980;28;20031;-70
2023/10/22 07:20:39;;;;;;;3.22;1.58;;;15.00;99.90;;;;;;4998033;28;20022;-68
2023/10/22 07:23:06;;;;;;;3.22;0.98;;;15.00;99.90;;;;;;5005624;28;20096;-68
2023/10/22 07:25:33;;;;;;;4.40;1.35;;;15.10;99.90;;;;;;4993019;28;20046;-69
2023/10/22 07:27:59;;;;;;;3.25;1.40;;;15.10;99.90;;;;;;4990713;28;20018;-69
2023/10/22 07:30:25;;;;;;;5.75;2.10;;;15.10;99.90;;;;;;4991505;28;20036;-69
2023/10/22 07:32:53;;;;;;;6.85;1.60;;;15.10;99.90;;;;;;4993808;28;20030;-69
2023/10/22 07:35:20;;;;;;;3.40;1.55;;;15.10;99.90;;;;;;4993059;28;20125;-68
2023/10/22 07:37:46;;;;;;;4.70;1.40;;;15.00;99.90;;;;;;4992951;28;20022;-68
2023/10/22 07:40:17;;;;;;;7.30;1.88;;;15.10;99.90;;;;;;4992058;28;20030;-69
2023/10/22 07:42:55;;;;;;;4.22;2.00;;;15.10;99.90;;;;;;5007888;28;20480;-69
2023/10/22 07:45:22;;;;;;;4.90;1.95;;;15.10;99.90;;;;;;4991957;28;20022;-68
2023/10/22 07:47:48;;;;;;;6.30;2.00;;;15.10;99.90;;;;;;4989858;28;20023;-68
2023/10/22 07:50:14;;;;;;;4.10;2.17;;;15.10;99.90;;;;;;4991910;28;20053;-68
2023/10/22 07:52:40;;;;;;;4.47;2.28;;;15.10;99.90;;;;;;4991847;28;20022;-68
2023/10/22 07:55:07;;;;;;;5.53;2.22;;;15.10;99.90;;;;;;4993080;28;20125;-68
2023/10/22 07:57:33;;;;;;;5.97;2.17;;;15.10;99.90;;;;;;4991818;28;20049;-69
2023/10/22 07:59:59;;;;;;;4.97;2.38;;;15.10;99.90;;;;;;4993152;28;20047;-69
2023/10/22 08:02:25;;;;;;;5.38;1.45;;;15.10;99.90;;;;;;4993023;28;20393;-71
2023/10/22 08:04:50;;;;;;;5.95;2.20;;;15.10;99.90;;;;;;4991944;28;20058;-69
2023/10/22 08:07:18;;;;;;;5.88;1.85;;;15.10;99.90;;;;;;4993799;28;20383;-69
2023/10/22 08:09:45;;;;;;;7.75;2.10;;;15.10;99.90;;;;;;4993076;28;20471;-68
2023/10/22 08:12:11;;;;;;;7.88;2.97;;;15.10;99.90;;;;;;4993557;28;20140;-69
2023/10/22 08:14:37;;;;;;;4.28;2.10;;;15.10;99.90;;;;;;4993949;28;20516;-68
2023/10/22 08:17:02;;;;;;;3.67;1.73;;;15.20;99.90;;;;;;4993476;28;20538;-69
2023/10/22 08:19:28;;;;;;;4.15;2.20;;;15.10;99.90;;;;;;4993222;28;20483;-70
2023/10/22 08:21:54;;;;;;;6.57;2.40;;;15.20;99.90;;;;;;4993448;28;20057;-69
2023/10/22 08:24:19;;;;;;;5.20;2.10;;;15.20;99.90;;;;;;4993480;28;20391;-69
2023/10/22 08:26:45;;;;;;;7.50;2.70;;;15.20;99.90;;;;;;4993358;28;20021;-69
2023/10/22 08:29:11;;;;;;;4.40;2.60;;;15.20;99.90;;;;;;4993328;28;20026;-71
2023/10/22 08:31:36;;;;;;;4.25;3.05;;;15.30;99.90;;;;;;4992509;28;20080;-69
2023/10/22 08:34:02;;;;;;;5.60;2.80;;;15.30;99.90;;;;;;4993328;28;20121;-69
2023/10/22 08:36:28;;;;;;;7.75;2.30;;;15.30;99.90;;;;;;4993593;28;20010;-69
2023/10/22 08:38:54;;;;;;;7.47;2.83;;;15.30;99.90;;;;;;4993087;28;20109;-69
2023/10/22 08:41:25;;;;;;;4.18;1.83;;;15.30;99.90;;;;;;4992434;28;20101;-69
2023/10/22 08:43:51;;;;;;;7.30;2.50;;;15.30;99.90;;;;;;4993466;28;20044;-69
2023/10/22 08:46:17;;;;;;;3.90;2.08;;;15.30;99.90;;;;;;4993395;28;20030;-69
2023/10/22 08:48:44;;;;;;;8.63;2.40;;;15.30;99.90;;;;;;4993409;28;20553;-69
2023/10/22 08:51:10;;;;;;;4.30;2.53;;;15.30;99.90;;;;;;4992235;28;20475;-69
2023/10/22 08:53:36;;;;;;;6.38;2.17;;;15.40;99.90;;;;;;4992847;28;20129;-68
2023/10/22 08:56:03;;;;;;;5.47;2.60;;;15.40;99.90;;;;;;4991800;28;20426;-69
2023/10/22 08:58:30;;;;;;;2.90;1.95;;;15.40;99.90;;;;;;4991604;28;20540;-69
2023/10/22 09:00:56;;;;;;;2.15;1.33;;;15.40;99.90;;;;;;4992504;28;20380;-69
2023/10/22 09:03:24;;;;;;;3.28;1.60;;;15.40;99.90;;;;;;4992729;28;20033;-70
2023/10/22 09:05:51;;;;;;;4.53;1.90;;;15.40;99.90;;;;;;4993285;28;20077;-69
2023/10/22 09:08:16;;;;;;;4.45;1.95;;;15.40;99.90;;;;;;4992836;28;20026;-69
2023/10/22 09:10:42;;;;;;;4.40;1.88;;;15.50;99.90;;;;;;4992335;28;20029;-69
2023/10/22 09:13:12;;;;;;;3.22;2.15;;;15.50;99.90;;;;;;4991859;28;20483;-69
2023/10/22 09:15:38;;;;;;;5.25;2.00;;;15.50;99.90;;;;;;4993217;28;20034;-69
2023/10/22 09:18:04;;;;;;;1.95;1.38;;;15.60;99.90;;;;;;4992980;28;20027;-69
2023/10/22 09:20:30;;;;;;;4.13;1.50;;;15.50;99.90;;;;;;4990898;28;20025;-69
2023/10/22 09:23:20;;;;;;;2.50;1.45;;;15.60;99.90;;;;;;4991529;28;20065;-70
2023/10/22 09:25:46;;;;;;;4.75;1.80;;;15.60;99.90;;;;;;4993011;28;20483;-69
2023/10/22 09:28:24;;;;;;;3.90;1.42;;;15.60;99.90;;;;;;4992189;28;20026;-69
2023/10/22 09:30:58;;;;;;;3.67;1.60;;;15.60;99.90;;;;;;4991991;28;20163;-69
2023/10/22 09:33:35;;;;;;;2.95;1.42;;;15.60;99.90;;;;;;4992726;28;20038;-69
2023/10/22 09:36:03;;;;;;;3.28;1.00;;;15.70;99.90;;;;;;4992519;28;20030;-69
2023/10/22 09:38:43;;;;;;;3.88;1.08;;;15.60;99.90;;;;;;4992058;28;20053;-69
2023/10/22 09:41:33;;;;;;;1.80;0.95;;;15.70;99.90;;;;;;4992326;28;20109;-69
2023/10/22 09:44:00;;;;;;;3.00;1.35;;;15.70;99.90;;;;;;4992369;28;20042;-69
2023/10/22 09:46:33;;;;;;;1.65;0.95;;;15.70;99.90;;;;;;4992082;28;20030;-69
2023/10/22 09:49:03;;;;;;;1.48;0.93;;;15.70;99.90;;;;;;4992549;28;20030;-69
2023/10/22 09:51:35;;;;;;;4.00;0.93;;;15.70;99.90;;;;;;4991336;28;20026;-69
2023/10/22 09:54:05;;;;;;;1.87;0.70;;;15.70;99.90;;;;;;4990895;28;20038;-69
2023/10/22 09:56:32;;;;;;;2.70;0.63;;;15.80;99.90;;;;;;4992614;28;20022;-69
2023/10/22 09:59:07;;;;;;;2.55;0.80;;;15.80;99.90;;;;;;4992815;28;20026;-69
2023/10/22 10:01:34;;;;;;;3.72;0.73;;;15.80;99.90;;;;;;4991448;28;20058;-69
2023/10/22 10:04:03;;;;;;;1.52;0.60;;;15.80;99.90;;;;;;4992329;28;20030;-70
2023/10/22 10:06:30;;;;;;;2.10;0.75;;;15.80;99.90;;;;;;4992467;28;20027;-70
2023/10/22 10:08:57;;;;;;;1.77;0.70;;;15.80;99.90;;;;;;4996415;28;20026;-70
2023/10/22 10:11:23;;;;;;;1.20;0.50;;;15.80;99.90;;;;;;4995729;28;20011;-70
2023/10/22 10:13:50;;;;;;;3.80;0.95;;;15.80;99.90;;;;;;4993819;28;20046;-72
2023/10/22 10:16:15;;;;;;;3.75;1.00;;;15.80;99.90;;;;;;4988695;28;20018;-69
2023/10/22 10:19:02;;;;;;;1.85;0.68;;;15.90;99.90;;;;;;4994504;28;20392;-70
2023/10/22 10:21:34;;;;;;;1.17;0.60;;;15.90;99.90;;;;;;4993115;28;20023;-71
2023/10/22 10:24:27;;;;;;;4.07;1.10;;;15.90;99.90;;;;;;5010000;28;20482;-68
2023/10/22 10:26:56;;;;;;;3.10;0.80;;;15.90;99.90;;;;;;4986752;28;20373;-68
2023/10/22 10:29:29;;;;;;;1.80;0.60;;;15.90;99.90;;;;;;4976429;28;20027;-69
2023/10/22 10:32:15;;;;;;;2.60;0.70;;;16.00;99.90;;;;;;4991981;28;20045;-68
2023/10/22 10:34:43;;;;;;;2.10;0.65;;;16.00;99.90;;;;;;4995232;28;20049;-72
2023/10/22 10:37:12;;;;;;;4.82;0.82;;;16.00;99.90;;;;;;4992766;28;20053;-69
2023/10/22 10:39:42;;;;;;;4.20;0.85;;;16.00;99.90;;;;;;4985883;28;20046;-70
2023/10/22 10:42:09;;;;;;;6.03;0.90;;;16.10;99.90;;;;;;4994169;28;20101;-70
2023/10/22 10:44:54;;;;;;;3.38;0.57;;;16.10;99.90;;;;;;4994888;28;20037;-70
2023/10/22 10:47:24;;;;;;;3.22;0.90;;;16.10;99.90;;;;;;4994601;28;20057;-71
2023/10/22 10:50:13;;;;;;;3.80;0.73;;;16.20;99.90;;;;;;4991243;28;20832;-70
2023/10/22 10:52:38;;;;;;;6.63;1.08;;;16.20;99.90;;;;;;5001380;28;20128;-72
2023/10/22 10:55:29;;;;;;;3.95;1.15;;;16.20;99.90;;;;;;4991218;28;20791;-72
2023/10/22 10:57:55;;;;;;;4.82;1.23;;;16.30;99.90;;;;;;4991415;28;20026;-70
2023/10/22 11:00:27;;;;;;;3.00;0.80;;;16.30;99.90;;;;;;4989627;28;20037;-68
2023/10/22 11:02:54;;;;;;;5.38;1.15;;;16.20;99.90;;;;;;4988898;28;20455;-71
2023/10/22 11:05:40;;;;;;;3.22;1.05;;;16.30;99.90;;;;;;5007683;28;20026;-68
2023/10/22 11:08:22;;;;;;;5.60;1.25;;;16.30;99.90;;;;;;4991150;28;20110;-68
2023/10/22 11:10:48;;;;;;;3.38;1.08;;;16.30;99.90;;;;;;4985917;28;20038;-69
2023/10/22 11:13:14;;;;;;;2.75;0.90;;;16.40;99.90;;;;;;4989215;28;20066;-69
2023/10/22 11:15:40;;;;;;;3.47;0.95;;;16.40;99.90;;;;;;4984320;28;20034;-71
2023/10/22 11:18:10;;;;;;;4.78;1.05;;;16.50;99.90;;;;;;4989148;28;20026;-71
2023/10/22 11:20:38;;;;;;;2.05;0.68;;;16.40;99.90;;;;;;4989525;28;20030;-70
2023/10/22 11:23:15;;;;;;;4.18;0.60;;;16.50;99.90;;;;;;4990644;28;20072;-69
2023/10/22 11:25:42;;;;;;;2.92;1.02;;;16.50;99.90;;;;;;4990108;28;20124;-70
2023/10/22 11:28:08;;;;;;;3.05;0.88;;;16.60;99.90;;;;;;4990027;28;20463;-69
2023/10/22 11:30:38;;;;;;;1.20;0.68;;;16.70;99.90;;;;;;4987241;28;20029;-69
2023/10/22 11:33:26;;;;;;;1.40;0.60;;;16.70;99.90;;;;;;4991035;28;20499;-70
2023/10/22 11:35:55;;;;;;;2.85;0.80;;;16.70;99.90;;;;;;4986022;28;20046;-70
2023/10/22 11:38:22;;;;;;;1.75;0.60;;;16.70;99.90;;;;;;4992202;28;20030;-70
2023/10/22 11:40:53;;;;;;;1.80;0.65;;;16.70;99.90;;;;;;4983723;28;20462;-69
2023/10/22 11:43:23;;;;;;;3.55;0.68;;;16.70;99.90;;;;;;4986154;28;20698;-70
2023/10/22 11:45:57;;;;;;;3.45;0.50;;;16.80;99.90;;;;;;4990649;28;20510;-70
2023/10/22 11:48:27;;;;;;;2.50;0.60;;;16.80;99.90;;;;;;4990449;28;20030;-70
2023/10/22 11:51:01;;;;;;;2.58;1.02;;;16.90;99.90;;;;;;4989627;28;20412;-69
2023/10/22 11:53:43;;;;;;;3.63;0.80;;;16.80;99.90;;;;;;4989395;28;20045;-70
2023/10/22 11:56:09;;;;;;;1.70;0.80;;;16.90;99.90;;;;;;4984003;28;20034;-71
2023/10/22 11:58:34;;;;;;;3.42;1.10;;;16.80;99.90;;;;;;4983936;28;20493;-70
2023/10/22 12:01:02;;;;;;;4.80;0.82;;;16.90;99.90;;;;;;4987993;28;20518;-70
2023/10/22 12:03:28;;;;;;;2.63;1.45;;;16.80;99.90;;;;;;4989312;28;20038;-70
2023/10/22 12:05:53;;;;;;;2.75;0.80;;;16.90;99.90;;;;;;4990458;28;20033;-70
2023/10/22 12:08:19;;;;;;;3.42;1.20;;;17.00;99.90;;;;;;4990535;28;21077;-69
2023/10/22 12:10:45;;;;;;;3.22;1.05;;;16.90;99.90;;;;;;4989984;28;20014;-69
2023/10/22 12:13:11;;;;;;;6.20;1.02;;;17.00;99.90;;;;;;4990480;28;20044;-69
2023/10/22 12:15:38;;;;;;;2.92;0.98;;;16.90;99.90;;;;;;4998383;28;20482;-70
2023/10/22 12:18:05;;;;;;;3.63;1.20;;;17.00;99.90;;;;;;4991879;28;20030;-69
2023/10/22 12:20:31;;;;;;;3.42;1.08;;;17.00;99.90;;;;;;4992227;28;20061;-69
2023/10/22 12:22:57;;;;;;;3.58;1.20;;;17.00;99.90;;;;;;4989746;28;20070;-69
2023/10/22 12:25:24;;;;;;;5.78;1.13;;;17.00;99.90;;;;;;4990890;28;20045;-69
2023/10/22 12:27:49;;;;;;;4.10;1.30;;;17.00;99.90;;;;;;4991606;28;20026;-69
2023/10/22 12:30:15;;;;;;;4.93;1.00;;;17.00;99.90;;;;;;4989092;28;20089;-70
2023/10/22 12:32:41;;;;;;;4.03;1.58;;;17.00;99.90;;;;;;4992137;28;20052;-70
2023/10/22 12:35:07;;;;;;;4.75;1.73;;;17.00;99.90;;;;;;4989417;28;20047;-70
2023/10/22 12:37:33;;;;;;;7.40;1.60;;;17.10;99.90;;;;;;4991910;28;20030;-68
2023/10/22 12:39:58;;;;;;;7.13;2.20;;;17.10;99.90;;;;;;4989583;28;20478;-69
2023/10/22 12:42:24;;;;;;;6.25;1.30;;;17.10;99.90;;;;;;4990198;28;20023;-70
2023/10/22 12:44:50;;;;;;;4.45;1.50;;;17.10;99.90;;;;;;4982991;28;20435;-69
2023/10/22 12:47:15;;;;;;;5.35;1.45;;;17.10;99.90;;;;;;4990281;28;20037;-73
2023/10/22 12:49:42;;;;;;;5.10;1.50;;;17.10;99.90;;;;;;4989636;28;20031;-71